Terminal Aerodrome Forecast
Issued by NWS

Home | Current Version | Previous Version | Text Only | Print | Product List | Glossary On
Versions: 1 2 3 4 5 6 7 8 9 10 11 12 13 14 15
000
FTUS43 KGLD 031720
TAFMCK
TAF
KMCK 031720Z 0318/0418 35010KT P6SM SCT025
      TEMPO 0318/0321 BKN025
     FM040100 29007KT P6SM SKC
     FM041400 34011KT P6SM SKC=

USA.gov is the U.S. government's official web portal to all federal, state and local government web resources and services.